Terminal Aerodrome Forecast
Issued by NWS

Home | Current Version | Previous Version | Text Only | Print | Product List | Glossary On
Versions: 1 2 3 4 5 6 7 8 9 10 11 12
929
FTUS43 KMQT 172335
TAFIWD
TAF
KIWD 172335Z 1800/1824 23003KT P6SM SCT150
     FM180600 22007KT P6SM SCT060
     FM181400 22012G18KT P6SM SCT200
     FM182100 22009KT P6SM FEW250=

USA.gov is the U.S. government's official web portal to all federal, state and local government web resources and services.